sensor_id;sensor_type;location;lat;lon;timestamp;pressure;altitude;pressure_sealevel;temperature;humidity
43683;BME280;29285;52.128;21.060;2023-05-11T00:00:13;100923.17;;;12.62;38.51
43683;BME280;29285;52.128;21.060;2023-05-11T00:05:34;100925.51;;;12.56;38.64
43683;BME280;29285;52.128;21.060;2023-05-11T00:10:35;100921.41;;;12.50;38.54
43683;BME280;29285;52.128;21.060;2023-05-11T00:15:36;100919.39;;;12.45;38.75
43683;BME280;29285;52.128;21.060;2023-05-11T00:20:37;100915.83;;;12.39;38.94
43683;BME280;29285;52.128;21.060;2023-05-11T00:25:38;100918.20;;;12.31;38.98
43683;BME280;29285;52.128;21.060;2023-05-11T00:30:39;100922.11;;;12.25;39.06
43683;BME280;29285;52.128;21.060;2023-05-11T00:35:41;100919.25;;;12.17;39.06
43683;BME280;29285;52.128;21.060;2023-05-11T00:40:42;100919.00;;;12.10;39.20
43683;BME280;29285;52.128;21.060;2023-05-11T00:45:43;100917.56;;;11.98;39.30
43683;BME280;29285;52.128;21.060;2023-05-11T00:50:47;100912.34;;;11.85;39.32
43683;BME280;29285;52.128;21.060;2023-05-11T00:55:48;100910.73;;;11.72;39.66
43683;BME280;29285;52.128;21.060;2023-05-11T01:00:49;100909.42;;;11.65;39.84
43683;BME280;29285;52.128;21.060;2023-05-11T01:06:16;100907.40;;;11.61;40.00
43683;BME280;29285;52.128;21.060;2023-05-11T01:16:45;100901.94;;;11.52;40.43
43683;BME280;29285;52.128;21.060;2023-05-11T01:21:49;100904.05;;;11.49;40.62
43683;BME280;29285;52.128;21.060;2023-05-11T01:32:25;100903.22;;;11.45;40.95
43683;BME280;29285;52.128;21.060;2023-05-11T01:37:30;100901.66;;;11.45;41.09
43683;BME280;29285;52.128;21.060;2023-05-11T01:42:35;100899.79;;;11.41;41.23
43683;BME280;29285;52.128;21.060;2023-05-11T01:47:40;100896.58;;;11.33;41.25
43683;BME280;29285;52.128;21.060;2023-05-11T01:52:42;100895.40;;;11.28;41.32
43683;BME280;29285;52.128;21.060;2023-05-11T01:57:46;100895.25;;;11.26;41.29
43683;BME280;29285;52.128;21.060;2023-05-11T02:02:48;100894.89;;;11.28;41.58
43683;BME280;29285;52.128;21.060;2023-05-11T02:07:51;100897.02;;;11.23;41.53
43683;BME280;29285;52.128;21.060;2023-05-11T02:12:53;100897.73;;;11.20;41.58
43683;BME280;29285;52.128;21.060;2023-05-11T02:17:55;100891.16;;;11.18;41.82
43683;BME280;29285;52.128;21.060;2023-05-11T02:22:57;100893.79;;;11.15;41.88
43683;BME280;29285;52.128;21.060;2023-05-11T02:27:59;100896.05;;;11.14;42.02
43683;BME280;29285;52.128;21.060;2023-05-11T02:33:04;100896.41;;;11.14;42.11
43683;BME280;29285;52.128;21.060;2023-05-11T02:38:07;100895.06;;;11.09;42.13
43683;BME280;29285;52.128;21.060;2023-05-11T02:43:11;100896.83;;;11.05;42.20
43683;BME280;29285;52.128;21.060;2023-05-11T02:48:21;100900.70;;;10.99;42.33
43683;BME280;29285;52.128;21.060;2023-05-11T02:53:26;100904.60;;;10.91;42.30
43683;BME280;29285;52.128;21.060;2023-05-11T02:58:29;100901.20;;;10.82;42.42
43683;BME280;29285;52.128;21.060;2023-05-11T03:03:30;100902.83;;;10.73;42.61
43683;BME280;29285;52.128;21.060;2023-05-11T03:08:31;100909.82;;;10.65;42.63
43683;BME280;29285;52.128;21.060;2023-05-11T03:13:33;100906.40;;;10.59;42.89
43683;BME280;29285;52.128;21.060;2023-05-11T03:18:34;100908.02;;;10.51;43.15
43683;BME280;29285;52.128;21.060;2023-05-11T03:23:36;100910.83;;;10.46;43.39
43683;BME280;29285;52.128;21.060;2023-05-11T03:28:39;100917.26;;;10.44;43.58
43683;BME280;29285;52.128;21.060;2023-05-11T03:33:41;100919.33;;;10.44;43.94
43683;BME280;29285;52.128;21.060;2023-05-11T03:38:44;100920.33;;;10.49;44.24
43683;BME280;29285;52.128;21.060;2023-05-11T03:43:48;100927.41;;;10.55;44.36
43683;BME280;29285;52.128;21.060;2023-05-11T03:48:50;100931.01;;;10.63;44.66
43683;BME280;29285;52.128;21.060;2023-05-11T03:53:51;100931.13;;;10.70;44.93
43683;BME280;29285;52.128;21.060;2023-05-11T03:58:52;100934.73;;;10.78;44.99
43683;BME280;29285;52.128;21.060;2023-05-11T04:03:54;100939.90;;;10.82;45.08
43683;BME280;29285;52.128;21.060;2023-05-11T04:08:55;100945.39;;;10.90;45.23
43683;BME280;29285;52.128;21.060;2023-05-11T04:13:56;100944.29;;;10.98;45.52
43683;BME280;29285;52.128;21.060;2023-05-11T04:18:57;100945.10;;;11.05;45.43
43683;BME280;29285;52.128;21.060;2023-05-11T04:23:58;100947.34;;;11.08;45.66
43683;BME280;29285;52.128;21.060;2023-05-11T04:28:59;100949.89;;;11.16;45.71
43683;BME280;29285;52.128;21.060;2023-05-11T04:34:00;100949.62;;;11.25;45.89
43683;BME280;29285;52.128;21.060;2023-05-11T04:39:02;100945.69;;;11.37;45.96
43683;BME280;29285;52.128;21.060;2023-05-11T04:44:04;100950.77;;;11.52;46.08
43683;BME280;29285;52.128;21.060;2023-05-11T04:49:05;100952.04;;;11.64;46.41
43683;BME280;29285;52.128;21.060;2023-05-11T04:54:06;100956.13;;;11.70;46.43
43683;BME280;29285;52.128;21.060;2023-05-11T04:59:07;100959.65;;;11.82;46.56
43683;BME280;29285;52.128;21.060;2023-05-11T05:04:08;100956.72;;;11.96;46.80
43683;BME280;29285;52.128;21.060;2023-05-11T05:09:09;100956.63;;;12.06;46.84
43683;BME280;29285;52.128;21.060;2023-05-11T05:14:10;100960.84;;;12.16;46.79
43683;BME280;29285;52.128;21.060;2023-05-11T05:19:11;100963.98;;;12.29;47.02
43683;BME280;29285;52.128;21.060;2023-05-11T05:24:15;100970.08;;;12.43;47.06
43683;BME280;29285;52.128;21.060;2023-05-11T05:29:16;100969.52;;;12.57;47.07
43683;BME280;29285;52.128;21.060;2023-05-11T05:34:17;100971.75;;;12.71;47.14
43683;BME280;29285;52.128;21.060;2023-05-11T05:39:18;100968.75;;;12.86;47.11
43683;BME280;29285;52.128;21.060;2023-05-11T05:44:19;100966.98;;;13.09;47.24
43683;BME280;29285;52.128;21.060;2023-05-11T05:49:20;100971.83;;;13.64;48.58
43683;BME280;29285;52.128;21.060;2023-05-11T05:54:21;100976.03;;;14.08;49.35
43683;BME280;29285;52.128;21.060;2023-05-11T05:59:22;100977.51;;;14.30;49.53
43683;BME280;29285;52.128;21.060;2023-05-11T06:04:24;100976.42;;;14.55;49.73
43683;BME280;29285;52.128;21.060;2023-05-11T06:09:25;100970.27;;;14.74;49.75
43683;BME280;29285;52.128;21.060;2023-05-11T06:14:26;100973.56;;;14.91;49.63
43683;BME280;29285;52.128;21.060;2023-05-11T06:19:27;100976.20;;;14.98;49.33
43683;BME280;29285;52.128;21.060;2023-05-11T06:24:28;100977.04;;;15.13;49.27
43683;BME280;29285;52.128;21.060;2023-05-11T06:29:29;100974.11;;;15.32;49.39
43683;BME280;29285;52.128;21.060;2023-05-11T06:34:30;100976.92;;;15.65;49.84
43683;BME280;29285;52.128;21.060;2023-05-11T06:39:34;100978.19;;;15.97;50.40
43683;BME280;29285;52.128;21.060;2023-05-11T06:44:35;100976.24;;;15.98;49.89
43683;BME280;29285;52.128;21.060;2023-05-11T06:49:36;100976.81;;;16.03;49.42
43683;BME280;29285;52.128;21.060;2023-05-11T06:54:38;100973.98;;;16.15;49.34
43683;BME280;29285;52.128;21.060;2023-05-11T06:59:39;100976.94;;;16.28;49.14
43683;BME280;29285;52.128;21.060;2023-05-11T07:04:40;100976.24;;;16.40;48.95
43683;BME280;29285;52.128;21.060;2023-05-11T07:09:41;100977.07;;;16.70;49.38
43683;BME280;29285;52.128;21.060;2023-05-11T07:14:42;100983.23;;;16.86;49.26
43683;BME280;29285;52.128;21.060;2023-05-11T07:19:43;100974.55;;;17.06;49.27
43683;BME280;29285;52.128;21.060;2023-05-11T07:24:44;100972.91;;;17.24;49.23
43683;BME280;29285;52.128;21.060;2023-05-11T07:29:45;100970.73;;;17.32;48.77
43683;BME280;29285;52.128;21.060;2023-05-11T07:34:46;100972.90;;;17.45;48.59
43683;BME280;29285;52.128;21.060;2023-05-11T07:39:48;100968.96;;;17.53;48.29
43683;BME280;29285;52.128;21.060;2023-05-11T07:44:49;100970.98;;;17.66;48.16
43683;BME280;29285;52.128;21.060;2023-05-11T07:49:50;100967.09;;;17.71;47.74
43683;BME280;29285;52.128;21.060;2023-05-11T07:54:52;100964.02;;;17.83;47.61
43683;BME280;29285;52.128;21.060;2023-05-11T07:59:53;100971.08;;;17.78;46.86
43683;BME280;29285;52.128;21.060;2023-05-11T08:04:54;100964.96;;;17.91;46.76
43683;BME280;29285;52.128;21.060;2023-05-11T08:09:55;100967.98;;;18.05;46.55
43683;BME280;29285;52.128;21.060;2023-05-11T08:14:56;100965.06;;;18.13;46.22
43683;BME280;29285;52.128;21.060;2023-05-11T08:19:57;100962.86;;;18.30;46.14
43683;BME280;29285;52.128;21.060;2023-05-11T08:24:58;100957.02;;;18.40;45.92
43683;BME280;29285;52.128;21.060;2023-05-11T08:29:59;100960.08;;;18.43;45.39
43683;BME280;29285;52.128;21.060;2023-05-11T08:35:01;100955.55;;;18.37;44.54
43683;BME280;29285;52.128;21.060;2023-05-11T08:40:04;100955.31;;;18.52;44.46
43683;BME280;29285;52.128;21.060;2023-05-11T08:45:06;100945.73;;;18.63;44.37
43683;BME280;29285;52.128;21.060;2023-05-11T08:50:07;100950.05;;;18.66;43.93
43683;BME280;29285;52.128;21.060;2023-05-11T08:55:09;100951.91;;;18.76;43.78
43683;BME280;29285;52.128;21.060;2023-05-11T09:00:11;100947.24;;;18.78;43.47
43683;BME280;29285;52.128;21.060;2023-05-11T09:05:13;100946.04;;;18.69;42.86
43683;BME280;29285;52.128;21.060;2023-05-11T09:10:14;100946.14;;;18.62;42.41
43683;BME280;29285;52.128;21.060;2023-05-11T09:15:15;100944.63;;;18.73;42.33
43683;BME280;29285;52.128;21.060;2023-05-11T09:20:26;100938.58;;;18.89;42.28
43683;BME280;29285;52.128;21.060;2023-05-11T09:25:31;100938.06;;;19.10;42.37
43683;BME280;29285;52.128;21.060;2023-05-11T09:30:34;100931.61;;;19.22;42.28
43683;BME280;29285;52.128;21.060;2023-05-11T09:35:35;100926.52;;;19.26;41.94
43683;BME280;29285;52.128;21.060;2023-05-11T10:16:43;100908.95;;;19.69;39.97
43683;BME280;29285;52.128;21.060;2023-05-11T10:21:44;100908.64;;;19.72;39.85
43683;BME280;29285;52.128;21.060;2023-05-11T10:26:46;100904.84;;;19.79;39.79
43683;BME280;29285;52.128;21.060;2023-05-11T10:31:48;100899.77;;;19.81;39.70
43683;BME280;29285;52.128;21.060;2023-05-11T10:36:51;100899.30;;;19.92;39.70
43683;BME280;29285;52.128;21.060;2023-05-11T10:53:05;100883.14;;;20.40;39.87
43683;BME280;29285;52.128;21.060;2023-05-11T10:58:33;100880.80;;;20.52;39.69
43683;BME280;29285;52.128;21.060;2023-05-11T11:03:58;100883.52;;;20.69;39.75
43683;BME280;29285;52.128;21.060;2023-05-11T11:09:06;100874.62;;;20.89;39.75
43683;BME280;29285;52.128;21.060;2023-05-11T11:14:27;100871.56;;;21.08;39.70
43683;BME280;29285;52.128;21.060;2023-05-11T11:19:45;100872.16;;;21.27;39.72
43683;BME280;29285;52.128;21.060;2023-05-11T11:24:47;100871.55;;;21.48;39.89
43683;BME280;29285;52.128;21.060;2023-05-11T11:30:29;100873.30;;;21.72;40.23
43683;BME280;29285;52.128;21.060;2023-05-11T11:40:48;100861.48;;;21.95;40.18
43683;BME280;29285;52.128;21.060;2023-05-11T11:45:56;100869.02;;;21.96;39.75
43683;BME280;29285;52.128;21.060;2023-05-11T11:51:09;100865.37;;;22.05;39.63
43683;BME280;29285;52.128;21.060;2023-05-11T12:01:26;100857.05;;;22.36;39.83
43683;BME280;29285;52.128;21.060;2023-05-11T12:06:38;100864.61;;;22.37;39.37
43683;BME280;29285;52.128;21.060;2023-05-11T12:11:45;100856.86;;;22.49;39.35
43683;BME280;29285;52.128;21.060;2023-05-11T12:17:02;100854.02;;;22.65;39.45
43683;BME280;29285;52.128;21.060;2023-05-11T12:22:04;100862.77;;;22.79;39.40
43683;BME280;29285;52.128;21.060;2023-05-11T12:27:05;100857.20;;;22.83;39.03
43683;BME280;29285;52.128;21.060;2023-05-11T12:32:10;100851.64;;;22.97;38.77
43683;BME280;29285;52.128;21.060;2023-05-11T12:37:29;100846.74;;;23.07;38.67
43683;BME280;29285;52.128;21.060;2023-05-11T12:42:51;100841.61;;;23.28;38.98
43683;BME280;29285;52.128;21.060;2023-05-11T12:47:54;100839.29;;;23.43;39.19
43683;BME280;29285;52.128;21.060;2023-05-11T12:53:16;100836.71;;;23.53;39.14
43683;BME280;29285;52.128;21.060;2023-05-11T12:58:20;100833.42;;;23.63;39.03
43683;BME280;29285;52.128;21.060;2023-05-11T13:03:29;100824.77;;;23.69;38.93
43683;BME280;29285;52.128;21.060;2023-05-11T13:08:30;100818.30;;;23.76;38.76
43683;BME280;29285;52.128;21.060;2023-05-11T13:13:34;100819.52;;;23.87;38.91
43683;BME280;29285;52.128;21.060;2023-05-11T13:18:38;100815.93;;;24.07;39.03
43683;BME280;29285;52.128;21.060;2023-05-11T13:23:59;100804.94;;;24.24;39.27
43683;BME280;29285;52.128;21.060;2023-05-11T13:29:01;100801.95;;;24.26;38.89
43683;BME280;29285;52.128;21.060;2023-05-11T13:34:25;100801.16;;;24.46;39.27
43683;BME280;29285;52.128;21.060;2023-05-11T13:39:43;100798.46;;;24.55;39.35
43683;BME280;29285;52.128;21.060;2023-05-11T13:44:51;100798.02;;;24.67;39.21
43683;BME280;29285;52.128;21.060;2023-05-11T13:55:25;100795.98;;;24.84;39.07
43683;BME280;29285;52.128;21.060;2023-05-11T14:00:46;100798.92;;;24.80;38.65
43683;BME280;29285;52.128;21.060;2023-05-11T14:05:49;100796.59;;;24.91;38.58
43683;BME280;29285;52.128;21.060;2023-05-11T14:10:59;100790.65;;;24.97;38.42
43683;BME280;29285;52.128;21.060;2023-05-11T14:16:00;100789.84;;;25.14;38.44
43683;BME280;29285;52.128;21.060;2023-05-11T14:21:03;100791.23;;;25.32;38.37
43683;BME280;29285;52.128;21.060;2023-05-11T14:26:04;100782.66;;;25.31;37.85
43683;BME280;29285;52.128;21.060;2023-05-11T14:31:06;100780.20;;;25.37;37.72
43683;BME280;29285;52.128;21.060;2023-05-11T14:36:12;100780.75;;;25.47;37.39
43683;BME280;29285;52.128;21.060;2023-05-11T14:41:16;100781.27;;;25.58;37.35
43683;BME280;29285;52.128;21.060;2023-05-11T14:46:19;100777.00;;;25.65;36.95
43683;BME280;29285;52.128;21.060;2023-05-11T14:51:24;100778.78;;;25.77;36.41
43683;BME280;29285;52.128;21.060;2023-05-11T14:56:25;100782.30;;;26.00;36.68
43683;BME280;29285;52.128;21.060;2023-05-11T15:01:26;100775.41;;;26.09;36.42
43683;BME280;29285;52.128;21.060;2023-05-11T15:06:27;100775.24;;;26.14;35.89
43683;BME280;29285;52.128;21.060;2023-05-11T15:11:30;100777.83;;;26.17;35.47
43683;BME280;29285;52.128;21.060;2023-05-11T15:16:31;100775.05;;;26.33;35.28
43683;BME280;29285;52.128;21.060;2023-05-11T15:21:32;100773.02;;;26.46;35.05
43683;BME280;29285;52.128;21.060;2023-05-11T15:26:33;100778.34;;;26.46;34.38
43683;BME280;29285;52.128;21.060;2023-05-11T15:31:35;100774.08;;;26.42;33.75
43683;BME280;29285;52.128;21.060;2023-05-11T15:36:36;100771.85;;;26.61;33.58
43683;BME280;29285;52.128;21.060;2023-05-11T15:41:37;100770.63;;;26.77;33.36
43683;BME280;29285;52.128;21.060;2023-05-11T15:46:38;100770.09;;;26.87;33.09
43683;BME280;29285;52.128;21.060;2023-05-11T15:51:39;100780.73;;;26.87;32.53
43683;BME280;29285;52.128;21.060;2023-05-11T15:56:40;100778.92;;;26.78;32.12
43683;BME280;29285;52.128;21.060;2023-05-11T16:01:44;100783.11;;;26.73;31.90
43683;BME280;29285;52.128;21.060;2023-05-11T16:06:49;100781.92;;;26.76;31.59
43683;BME280;29285;52.128;21.060;2023-05-11T16:11:50;100780.58;;;26.94;31.12
43683;BME280;29285;52.128;21.060;2023-05-11T16:16:51;100783.36;;;27.22;30.80
43683;BME280;29285;52.128;21.060;2023-05-11T16:21:58;100786.66;;;27.44;30.68
43683;BME280;29285;52.128;21.060;2023-05-11T16:26:59;100781.18;;;27.52;30.20
43683;BME280;29285;52.128;21.060;2023-05-11T16:32:00;100778.79;;;27.51;29.81
43683;BME280;29285;52.128;21.060;2023-05-11T16:37:02;100777.02;;;27.40;29.22
43683;BME280;29285;52.128;21.060;2023-05-11T16:42:03;100776.15;;;27.44;28.97
43683;BME280;29285;52.128;21.060;2023-05-11T16:47:20;100777.85;;;27.55;28.76
43683;BME280;29285;52.128;21.060;2023-05-11T16:52:21;100775.28;;;27.59;28.59
43683;BME280;29285;52.128;21.060;2023-05-11T16:57:27;100781.77;;;27.54;28.24
43683;BME280;29285;52.128;21.060;2023-05-11T17:02:29;100783.55;;;27.45;27.93
43683;BME280;29285;52.128;21.060;2023-05-11T17:07:34;100786.97;;;27.31;27.60
43683;BME280;29285;52.128;21.060;2023-05-11T17:13:01;100788.44;;;27.17;27.29
43683;BME280;29285;52.128;21.060;2023-05-11T17:18:07;100788.56;;;26.92;27.01
43683;BME280;29285;52.128;21.060;2023-05-11T17:23:40;100796.29;;;26.58;26.62
43683;BME280;29285;52.128;21.060;2023-05-11T17:28:40;100797.86;;;26.25;26.66
43683;BME280;29285;52.128;21.060;2023-05-11T17:33:42;100799.88;;;25.88;26.45
43683;BME280;29285;52.128;21.060;2023-05-11T17:38:43;100806.37;;;25.16;26.41
43683;BME280;29285;52.128;21.060;2023-05-11T17:43:44;100807.89;;;24.36;26.14
43683;BME280;29285;52.128;21.060;2023-05-11T17:48:47;100808.50;;;23.68;26.23
43683;BME280;29285;52.128;21.060;2023-05-11T17:53:49;100810.08;;;23.08;26.31
43683;BME280;29285;52.128;21.060;2023-05-11T17:58:50;100812.73;;;22.54;26.36
43683;BME280;29285;52.128;21.060;2023-05-11T18:03:51;100821.65;;;22.09;26.41
43683;BME280;29285;52.128;21.060;2023-05-11T18:08:52;100826.58;;;21.68;26.48
43683;BME280;29285;52.128;21.060;2023-05-11T18:13:53;100831.39;;;21.30;26.52
43683;BME280;29285;52.128;21.060;2023-05-11T18:18:55;100836.61;;;20.98;26.65
43683;BME280;29285;52.128;21.060;2023-05-11T18:23:56;100843.08;;;20.67;26.70
43683;BME280;29285;52.128;21.060;2023-05-11T18:28:58;100846.17;;;20.40;26.89
43683;BME280;29285;52.128;21.060;2023-05-11T18:33:59;100850.02;;;20.15;27.03
43683;BME280;29285;52.128;21.060;2023-05-11T18:39:01;100857.16;;;19.89;27.20
43683;BME280;29285;52.128;21.060;2023-05-11T18:44:02;100861.17;;;19.71;27.31
43683;BME280;29285;52.128;21.060;2023-05-11T18:49:03;100862.52;;;19.49;27.54
43683;BME280;29285;52.128;21.060;2023-05-11T18:54:05;100866.35;;;19.26;27.77
43683;BME280;29285;52.128;21.060;2023-05-11T18:59:06;100864.50;;;19.08;27.99
43683;BME280;29285;52.128;21.060;2023-05-11T19:04:07;100868.32;;;18.87;28.17
43683;BME280;29285;52.128;21.060;2023-05-11T19:09:09;100872.11;;;18.72;28.45
43683;BME280;29285;52.128;21.060;2023-05-11T19:14:10;100880.03;;;18.59;28.70
43683;BME280;29285;52.128;21.060;2023-05-11T19:19:14;100883.81;;;18.44;28.83
43683;BME280;29285;52.128;21.060;2023-05-11T19:24:15;100891.15;;;18.31;29.06
43683;BME280;29285;52.128;21.060;2023-05-11T19:29:16;100898.55;;;18.17;29.30
43683;BME280;29285;52.128;21.060;2023-05-11T19:34:19;100903.00;;;18.01;29.58
43683;BME280;29285;52.128;21.060;2023-05-11T19:39:20;100904.31;;;17.89;29.80
43683;BME280;29285;52.128;21.060;2023-05-11T19:44:21;100905.21;;;17.79;29.99
43683;BME280;29285;52.128;21.060;2023-05-11T19:49:23;100910.83;;;17.70;30.28
43683;BME280;29285;52.128;21.060;2023-05-11T19:54:24;100910.47;;;17.60;30.51
43683;BME280;29285;52.128;21.060;2023-05-11T19:59:26;100910.93;;;17.52;30.75
43683;BME280;29285;52.128;21.060;2023-05-11T20:04:32;100910.05;;;17.42;31.12
43683;BME280;29285;52.128;21.060;2023-05-11T20:09:34;100917.44;;;17.31;31.25
43683;BME280;29285;52.128;21.060;2023-05-11T20:14:35;100916.42;;;17.20;31.41
43683;BME280;29285;52.128;21.060;2023-05-11T20:19:40;100922.56;;;17.10;31.73
43683;BME280;29285;52.128;21.060;2023-05-11T20:24:41;100923.96;;;17.04;31.97
43683;BME280;29285;52.128;21.060;2023-05-11T20:29:43;100926.20;;;16.99;32.33
43683;BME280;29285;52.128;21.060;2023-05-11T20:34:44;100930.38;;;16.84;32.45
43683;BME280;29285;52.128;21.060;2023-05-11T20:39:46;100931.83;;;16.71;32.66
43683;BME280;29285;52.128;21.060;2023-05-11T20:44:48;100935.93;;;16.64;33.02
43683;BME280;29285;52.128;21.060;2023-05-11T20:49:50;100932.69;;;16.56;33.21
43683;BME280;29285;52.128;21.060;2023-05-11T20:54:51;100929.56;;;16.49;33.54
43683;BME280;29285;52.128;21.060;2023-05-11T20:59:54;100934.63;;;16.44;33.77
43683;BME280;29285;52.128;21.060;2023-05-11T21:04:55;100934.36;;;16.35;33.97
43683;BME280;29285;52.128;21.060;2023-05-11T21:10:01;100938.95;;;16.29;34.26
43683;BME280;29285;52.128;21.060;2023-05-11T21:15:03;100944.70;;;16.23;34.50
43683;BME280;29285;52.128;21.060;2023-05-11T21:20:04;100949.82;;;16.16;34.70
43683;BME280;29285;52.128;21.060;2023-05-11T21:25:06;100953.35;;;16.09;34.87
43683;BME280;29285;52.128;21.060;2023-05-11T21:30:08;100955.34;;;16.01;35.03
43683;BME280;29285;52.128;21.060;2023-05-11T21:35:09;100962.01;;;15.86;35.19
43683;BME280;29285;52.128;21.060;2023-05-11T21:40:11;100963.03;;;15.68;35.23
43683;BME280;29285;52.128;21.060;2023-05-11T21:45:12;100963.11;;;15.52;35.39
43683;BME280;29285;52.128;21.060;2023-05-11T21:50:14;100966.59;;;15.39;35.58
43683;BME280;29285;52.128;21.060;2023-05-11T21:55:15;100969.33;;;15.28;35.75
43683;BME280;29285;52.128;21.060;2023-05-11T22:00:20;100974.24;;;15.13;35.90
43683;BME280;29285;52.128;21.060;2023-05-11T22:05:22;100974.40;;;15.07;36.09
43683;BME280;29285;52.128;21.060;2023-05-11T22:10:23;100976.27;;;15.01;36.29
43683;BME280;29285;52.128;21.060;2023-05-11T22:15:24;100979.52;;;14.97;36.52
43683;BME280;29285;52.128;21.060;2023-05-11T22:20:27;100985.82;;;14.89;36.67
43683;BME280;29285;52.128;21.060;2023-05-11T22:25:28;100988.98;;;14.81;36.80
43683;BME280;29285;52.128;21.060;2023-05-11T22:30:36;100992.66;;;14.72;36.99
43683;BME280;29285;52.128;21.060;2023-05-11T22:35:38;100999.49;;;14.62;37.12
43683;BME280;29285;52.128;21.060;2023-05-11T22:40:39;101001.39;;;14.55;37.33
43683;BME280;29285;52.128;21.060;2023-05-11T22:45:41;101003.18;;;14.53;37.55
43683;BME280;29285;52.128;21.060;2023-05-11T22:50:42;101000.55;;;14.54;37.75
43683;BME280;29285;52.128;21.060;2023-05-11T22:55:47;101002.64;;;14.54;38.02
43683;BME280;29285;52.128;21.060;2023-05-11T23:00:49;101005.52;;;14.51;38.19
43683;BME280;29285;52.128;21.060;2023-05-11T23:05:54;101008.35;;;14.48;38.39
43683;BME280;29285;52.128;21.060;2023-05-11T23:10:55;101006.30;;;14.47;38.57
43683;BME280;29285;52.128;21.060;2023-05-11T23:15:56;101000.80;;;14.43;38.71
43683;BME280;29285;52.128;21.060;2023-05-11T23:20:58;100999.95;;;14.33;38.78
43683;BME280;29285;52.128;21.060;2023-05-11T23:25:59;101000.98;;;14.25;38.97
43683;BME280;29285;52.128;21.060;2023-05-11T23:31:00;101000.60;;;14.19;39.19
43683;BME280;29285;52.128;21.060;2023-05-11T23:36:02;101002.15;;;14.11;39.23
43683;BME280;29285;52.128;21.060;2023-05-11T23:41:03;100998.81;;;14.03;39.42
43683;BME280;29285;52.128;21.060;2023-05-11T23:46:04;100998.77;;;13.97;39.64
43683;BME280;29285;52.128;21.060;2023-05-11T23:51:06;101001.67;;;13.90;39.90
43683;BME280;29285;52.128;21.060;2023-05-11T23:56:10;100996.17;;;13.86;40.05
